createdAt,value
2022-12-23T00:01:26.737Z,8.50
2022-12-23T00:03:59.260Z,8.10
2022-12-23T00:06:28.174Z,7.60
2022-12-23T00:08:59.990Z,7.80
2022-12-23T00:11:29.054Z,8.50
2022-12-23T00:14:21.491Z,8.90
2022-12-23T00:16:50.852Z,8.90
2022-12-23T00:19:19.929Z,7.90
2022-12-23T00:21:48.727Z,8.10
2022-12-23T00:24:17.626Z,8.10
2022-12-23T00:26:46.378Z,7.60
2022-12-23T00:29:15.453Z,7.10
2022-12-23T00:31:44.251Z,7.70
2022-12-23T00:34:13.272Z,8.00
2022-12-23T00:36:42.102Z,7.30
2022-12-23T00:39:31.150Z,7.40
2022-12-23T00:42:38.499Z,7.40
2022-12-23T00:45:15.808Z,7.80
2022-12-23T00:48:03.781Z,7.90
2022-12-23T00:50:36.981Z,7.50
2022-12-23T00:53:06.256Z,7.00
2022-12-23T00:55:35.728Z,7.60
2022-12-23T00:58:04.432Z,6.80
2022-12-23T01:00:51.980Z,8.00
2022-12-23T01:03:39.215Z,7.40
2022-12-23T01:06:07.947Z,7.60
2022-12-23T01:08:36.699Z,7.50
2022-12-23T01:11:06.841Z,7.70
2022-12-23T01:13:35.983Z,7.50
2022-12-23T01:16:09.342Z,7.90
2022-12-23T01:18:41.637Z,7.50
2022-12-23T01:21:10.863Z,8.30
2022-12-23T01:23:39.558Z,7.60
2022-12-23T01:26:08.622Z,7.50
2022-12-23T01:28:37.501Z,7.80
2022-12-23T01:31:07.958Z,8.40
2022-12-23T01:33:36.618Z,8.20
2022-12-23T01:36:06.795Z,8.70
2022-12-23T01:38:35.488Z,8.00
2022-12-23T01:41:04.331Z,8.20
2022-12-23T01:43:49.557Z,7.50
2022-12-23T01:46:18.374Z,8.20
2022-12-23T01:48:49.199Z,8.00
2022-12-23T01:51:22.184Z,8.80
2022-12-23T01:53:53.596Z,7.90
2022-12-23T01:56:25.008Z,8.20
2022-12-23T01:58:56.434Z,8.20
2022-12-23T02:01:44.327Z,8.20
2022-12-23T02:04:15.967Z,8.10
2022-12-23T02:07:03.998Z,8.50
2022-12-23T02:09:34.116Z,8.10
2022-12-23T02:12:18.639Z,7.50
2022-12-23T02:15:18.300Z,7.70
2022-12-23T02:17:59.131Z,8.20
2022-12-23T02:20:30.921Z,8.60
2022-12-23T02:23:25.020Z,8.10
2022-12-23T02:25:53.641Z,8.00
2022-12-23T02:28:31.527Z,9.40
2022-12-23T02:31:10.681Z,8.20
2022-12-23T02:33:48.476Z,8.30
2022-12-23T02:36:22.493Z,8.50
2022-12-23T02:38:59.664Z,7.10
2022-12-23T02:41:57.663Z,8.30
2022-12-23T02:44:32.753Z,7.60
2022-12-23T02:47:07.921Z,8.00
2022-12-23T02:49:38.959Z,8.50
2022-12-23T02:52:11.883Z,7.20
2022-12-23T02:57:11.554Z,8.00
2022-12-23T02:59:43.529Z,8.40
2022-12-23T03:02:12.412Z,7.90
2022-12-23T03:04:42.445Z,7.10
2022-12-23T03:07:19.045Z,7.50
2022-12-23T03:10:23.641Z,7.30
2022-12-23T03:12:55.298Z,8.10
2022-12-23T03:15:30.275Z,7.20
2022-12-23T03:17:58.985Z,7.10
2022-12-23T03:20:33.716Z,7.60
2022-12-23T03:23:16.117Z,7.20
2022-12-23T03:25:52.057Z,7.20
2022-12-23T03:28:39.270Z,7.90
2022-12-23T03:31:10.850Z,7.40
2022-12-23T03:33:40.779Z,7.20
2022-12-23T03:36:15.562Z,7.60
2022-12-23T03:38:45.206Z,7.10
2022-12-23T03:41:15.848Z,6.20
2022-12-23T03:43:50.916Z,7.40
2022-12-23T03:46:22.887Z,7.70
2022-12-23T03:48:54.005Z,6.90
2022-12-23T03:51:24.641Z,6.80
2022-12-23T03:54:07.205Z,7.10
2022-12-23T03:56:39.519Z,7.90
2022-12-23T03:59:28.485Z,7.20
2022-12-23T04:01:57.308Z,7.20
2022-12-23T04:04:26.601Z,7.60
2022-12-23T04:06:58.060Z,8.00
2022-12-23T04:09:28.045Z,6.60
2022-12-23T04:11:57.477Z,6.60
2022-12-23T04:14:26.193Z,7.00
2022-12-23T04:16:56.365Z,6.60
2022-12-23T04:19:25.336Z,7.10
2022-12-23T04:21:57.901Z,7.50
2022-12-23T04:24:26.688Z,7.30
2022-12-23T04:26:55.394Z,7.20
2022-12-23T04:29:24.108Z,8.00
2022-12-23T04:31:52.907Z,6.90
2022-12-23T04:34:21.645Z,7.00
2022-12-23T04:36:50.326Z,7.40
2022-12-23T04:39:19.085Z,7.00
2022-12-23T04:41:48.002Z,7.40
2022-12-23T04:44:16.723Z,7.50
2022-12-23T04:46:45.508Z,8.30
2022-12-23T04:49:14.201Z,7.50
2022-12-23T04:51:43.112Z,8.40
2022-12-23T04:54:11.824Z,8.00
2022-12-23T04:56:40.486Z,7.60
2022-12-23T04:59:10.012Z,7.90
2022-12-23T05:01:38.988Z,8.80
2022-12-23T05:04:08.818Z,8.20
2022-12-23T05:06:37.804Z,7.70
2022-12-23T05:09:06.545Z,8.20
2022-12-23T05:11:41.744Z,8.10
2022-12-23T05:14:11.251Z,8.60
2022-12-23T05:16:40.105Z,7.80
2022-12-23T05:19:10.079Z,8.10
2022-12-23T05:21:38.804Z,6.80
2022-12-23T05:24:07.583Z,6.80
2022-12-23T05:26:36.303Z,7.40
2022-12-23T05:29:06.139Z,7.00
2022-12-23T05:31:34.929Z,7.20
2022-12-23T05:34:06.638Z,7.60
2022-12-23T05:36:35.766Z,7.30
2022-12-23T05:39:04.729Z,7.20
2022-12-23T05:41:33.488Z,6.80
2022-12-23T05:44:02.171Z,7.00
2022-12-23T05:46:30.959Z,7.20
2022-12-23T05:48:59.716Z,7.30
2022-12-23T05:51:28.522Z,7.10
2022-12-23T05:53:57.362Z,6.70
2022-12-23T05:56:26.036Z,7.10
2022-12-23T05:58:54.869Z,7.50
2022-12-23T06:01:23.535Z,6.80
2022-12-23T06:03:52.617Z,6.90
2022-12-23T06:06:21.359Z,6.40
2022-12-23T06:08:53.228Z,6.90
2022-12-23T06:11:24.567Z,6.40
2022-12-23T06:13:53.253Z,7.10
2022-12-23T06:16:22.157Z,7.30
2022-12-23T06:18:54.025Z,7.10
2022-12-23T06:21:22.770Z,6.90
2022-12-23T06:23:51.620Z,7.00
2022-12-23T06:26:20.757Z,7.20
2022-12-23T06:28:49.494Z,6.90
2022-12-23T06:31:18.481Z,7.50
2022-12-23T06:33:47.181Z,6.50
2022-12-23T06:36:15.811Z,7.40
2022-12-23T06:38:44.536Z,7.20
2022-12-23T06:41:13.950Z,7.30
2022-12-23T06:43:42.681Z,7.30
2022-12-23T06:46:11.402Z,8.30
2022-12-23T06:48:40.146Z,7.00
2022-12-23T06:51:11.196Z,7.50
2022-12-23T06:53:40.312Z,7.40
2022-12-23T06:56:09.035Z,7.60
2022-12-23T06:58:37.684Z,7.70
2022-12-23T07:01:06.764Z,7.40
2022-12-23T07:03:35.767Z,7.60
2022-12-23T07:06:04.754Z,7.10
2022-12-23T07:08:33.492Z,7.90
2022-12-23T07:11:03.566Z,8.10
2022-12-23T07:13:32.803Z,7.80
2022-12-23T07:16:05.848Z,8.10
2022-12-23T07:18:35.144Z,8.20
2022-12-23T07:21:04.693Z,8.40
2022-12-23T07:23:33.439Z,8.90
2022-12-23T07:26:02.153Z,8.70
2022-12-23T07:28:30.904Z,8.60
2022-12-23T07:30:59.620Z,9.40
2022-12-23T07:33:28.385Z,8.80
2022-12-23T07:36:00.268Z,7.80
2022-12-23T07:38:29.385Z,7.50
2022-12-23T07:40:58.093Z,7.80
2022-12-23T07:43:26.788Z,7.90
2022-12-23T07:45:59.947Z,7.70
2022-12-23T07:48:29.983Z,7.80
2022-12-23T07:51:02.029Z,7.00
2022-12-23T07:53:30.916Z,7.30
2022-12-23T07:55:59.690Z,6.90
2022-12-23T07:58:28.483Z,7.10
2022-12-23T08:01:04.345Z,8.10
2022-12-23T08:03:33.144Z,7.40
2022-12-23T08:06:02.950Z,7.30
2022-12-23T08:08:32.401Z,7.20
2022-12-23T08:11:02.541Z,7.10
2022-12-23T08:13:32.964Z,7.30
2022-12-23T08:16:02.279Z,7.40
2022-12-23T08:18:32.076Z,6.00
2022-12-23T08:21:01.742Z,6.90
2022-12-23T08:23:31.327Z,6.30
2022-12-23T08:26:00.407Z,6.60
2022-12-23T08:28:29.270Z,6.40
2022-12-23T08:31:27.323Z,6.70
2022-12-23T08:33:56.719Z,6.40
2022-12-23T08:36:27.265Z,6.80
2022-12-23T08:38:57.608Z,6.20
2022-12-23T08:41:28.205Z,6.30
2022-12-23T08:43:57.037Z,5.90
2022-12-23T08:46:26.671Z,6.00
2022-12-23T08:48:56.060Z,6.20
2022-12-23T08:51:25.267Z,6.20
2022-12-23T08:54:00.618Z,6.70
2022-12-23T08:56:31.466Z,6.10
2022-12-23T08:59:00.553Z,6.50
2022-12-23T09:01:30.487Z,6.10
2022-12-23T09:04:01.872Z,6.50
2022-12-23T09:06:33.272Z,7.40
2022-12-23T09:09:02.028Z,6.50
2022-12-23T09:11:30.835Z,6.60
2022-12-23T09:14:00.525Z,6.50
2022-12-23T09:16:30.001Z,7.00
2022-12-23T09:18:58.928Z,7.00
2022-12-23T09:21:28.035Z,7.10
2022-12-23T09:23:56.800Z,6.50
2022-12-23T09:26:26.969Z,6.60
2022-12-23T09:28:56.514Z,6.50
2022-12-23T09:31:30.452Z,7.10
2022-12-23T09:34:03.074Z,6.90
2022-12-23T09:36:31.866Z,6.70
2022-12-23T09:39:00.789Z,6.60
2022-12-23T09:41:46.392Z,6.30
2022-12-23T09:44:35.235Z,6.50
2022-12-23T09:47:05.884Z,6.60
2022-12-23T09:49:34.753Z,5.80
2022-12-23T09:52:05.076Z,6.60
2022-12-23T09:54:38.091Z,5.60
2022-12-23T09:59:42.959Z,6.90
2022-12-23T10:02:19.689Z,6.80
2022-12-23T10:05:05.130Z,6.60
2022-12-23T10:07:37.323Z,6.90
2022-12-23T10:10:17.856Z,6.50
2022-12-23T10:12:48.642Z,7.00
2022-12-23T10:15:30.013Z,6.50
2022-12-23T10:18:02.957Z,6.90
2022-12-23T10:21:00.771Z,6.40
2022-12-23T10:23:36.504Z,6.60
2022-12-23T10:26:18.353Z,6.50
2022-12-23T10:28:47.366Z,6.70
2022-12-23T10:31:39.716Z,6.70
2022-12-23T10:34:19.756Z,7.40
2022-12-23T10:36:48.514Z,7.10
2022-12-23T10:39:23.029Z,7.00
2022-12-23T10:41:54.752Z,8.40
2022-12-23T10:44:46.137Z,8.20
2022-12-23T10:47:14.834Z,7.90
2022-12-23T10:49:49.688Z,8.60
2022-12-23T10:52:19.685Z,8.70
2022-12-23T10:54:49.368Z,8.70
2022-12-23T10:57:18.877Z,8.30
2022-12-23T10:59:47.732Z,7.90
2022-12-23T11:02:16.912Z,8.50
2022-12-23T11:04:47.202Z,8.00
2022-12-23T11:10:19.649Z,7.80
2022-12-23T11:12:50.426Z,8.00
2022-12-23T11:15:25.359Z,7.50
2022-12-23T11:18:29.378Z,8.30
2022-12-23T11:21:05.207Z,7.80
2022-12-23T11:23:36.560Z,7.80
2022-12-23T11:26:09.902Z,7.60
2022-12-23T11:31:11.806Z,7.00
2022-12-23T11:33:50.581Z,7.80
2022-12-23T11:36:23.939Z,7.70
2022-12-23T11:38:54.582Z,8.10
2022-12-23T11:41:33.899Z,7.70
2022-12-23T11:44:21.520Z,8.20
2022-12-23T11:46:50.738Z,7.80
2022-12-23T11:49:19.460Z,8.00
2022-12-23T11:51:58.779Z,8.50
2022-12-23T11:54:29.720Z,7.30
2022-12-23T11:56:59.181Z,8.10
2022-12-23T11:59:29.774Z,7.70
2022-12-23T12:02:04.017Z,7.40
2022-12-23T12:04:34.802Z,8.40
2022-12-23T12:07:04.888Z,8.90
2022-12-23T12:09:34.418Z,9.30
2022-12-23T12:12:07.661Z,9.30
2022-12-23T12:14:50.782Z,8.60
2022-12-23T12:17:25.123Z,7.90
2022-12-23T12:19:58.409Z,7.40
2022-12-23T12:22:41.497Z,7.40
2022-12-23T12:25:24.801Z,7.80
2022-12-23T12:27:56.618Z,7.40
2022-12-23T12:30:29.120Z,8.20
2022-12-23T12:33:11.897Z,8.00
2022-12-23T12:35:43.737Z,7.50
2022-12-23T12:38:24.873Z,8.30
2022-12-23T12:40:58.787Z,8.20
2022-12-23T12:43:32.162Z,7.70
2022-12-23T12:46:00.931Z,7.90
2022-12-23T12:48:46.567Z,8.00
2022-12-23T12:51:33.891Z,8.10
2022-12-23T12:54:06.963Z,8.40
2022-12-23T12:56:46.415Z,8.20
2022-12-23T12:59:17.052Z,8.60
2022-12-23T13:01:49.870Z,8.50
2022-12-23T13:04:18.661Z,7.90
2022-12-23T13:06:56.773Z,7.80
2022-12-23T13:09:41.658Z,8.00
2022-12-23T13:12:24.995Z,8.80
2022-12-23T13:14:58.497Z,8.70
2022-12-23T13:17:32.247Z,8.80
2022-12-23T13:20:10.133Z,7.30
2022-12-23T13:22:39.414Z,7.80
2022-12-23T13:25:13.448Z,8.30
2022-12-23T13:27:51.291Z,7.90
2022-12-23T13:30:23.665Z,8.10
2022-12-23T13:32:55.730Z,7.50
2022-12-23T13:35:27.154Z,7.20
2022-12-23T13:38:14.336Z,7.10
2022-12-23T13:40:49.081Z,6.60
2022-12-23T13:43:23.086Z,7.30
2022-12-23T13:45:53.509Z,6.90
2022-12-23T13:48:34.035Z,6.40
2022-12-23T13:51:05.461Z,6.60
2022-12-23T13:53:40.281Z,6.60
2022-12-23T13:56:14.173Z,6.30
2022-12-23T13:58:47.068Z,6.20
2022-12-23T14:03:44.815Z,6.30
2022-12-23T14:06:26.144Z,5.50
2022-12-23T14:08:55.657Z,5.80
2022-12-23T14:11:26.859Z,5.10
2022-12-23T14:13:58.328Z,6.20
2022-12-23T14:16:35.880Z,5.50
2022-12-23T14:19:10.743Z,6.20
2022-12-23T14:21:58.557Z,5.30
2022-12-23T14:24:36.638Z,5.90
2022-12-23T14:27:11.624Z,6.10
2022-12-23T14:29:43.413Z,6.00
2022-12-23T14:32:32.459Z,6.00
2022-12-23T14:35:24.277Z,6.20
2022-12-23T14:38:05.124Z,6.70
2022-12-23T14:40:37.066Z,6.90
2022-12-23T14:43:27.883Z,6.30
2022-12-23T14:46:05.367Z,5.90
2022-12-23T14:48:34.329Z,5.80
2022-12-23T14:51:21.109Z,5.90
2022-12-23T14:53:53.769Z,5.90
2022-12-23T14:56:27.551Z,5.60
2022-12-23T14:59:14.489Z,5.70
2022-12-23T15:01:48.002Z,5.80
2022-12-23T15:04:16.788Z,6.20
2022-12-23T15:06:47.348Z,5.60
2022-12-23T15:09:22.553Z,5.60
2022-12-23T15:11:52.164Z,5.80
2022-12-23T15:14:33.071Z,5.40
2022-12-23T15:17:28.082Z,5.60
2022-12-23T15:20:05.721Z,5.30
2022-12-23T15:22:35.437Z,5.70
2022-12-23T15:25:04.832Z,5.50
2022-12-23T15:27:35.581Z,5.40
2022-12-23T15:30:04.514Z,5.30
2022-12-23T15:32:33.315Z,5.70
2022-12-23T15:35:05.179Z,5.80
2022-12-23T15:37:34.523Z,6.00
2022-12-23T15:40:12.218Z,5.10
2022-12-23T15:42:47.032Z,5.30
2022-12-23T15:45:29.708Z,6.30
2022-12-23T15:47:58.560Z,5.50
2022-12-23T15:50:27.626Z,6.40
2022-12-23T15:53:00.040Z,5.90
2022-12-23T15:55:30.222Z,6.10
2022-12-23T15:58:00.012Z,6.30
2022-12-23T16:00:28.743Z,6.10
2022-12-23T16:03:01.062Z,6.10
2022-12-23T16:05:36.443Z,6.10
2022-12-23T16:08:08.369Z,6.40
2022-12-23T16:10:37.461Z,6.90
2022-12-23T16:13:15.847Z,6.20
2022-12-23T16:15:44.737Z,6.30
2022-12-23T16:18:19.570Z,6.20
2022-12-23T16:20:53.671Z,6.70
2022-12-23T16:23:22.647Z,6.60
2022-12-23T16:25:52.914Z,6.60
2022-12-23T16:28:24.255Z,6.40
2022-12-23T16:30:54.354Z,5.70
2022-12-23T16:33:41.363Z,6.80
2022-12-23T16:36:16.484Z,6.20
2022-12-23T16:38:45.317Z,6.20
2022-12-23T16:41:14.385Z,6.00
2022-12-23T16:43:51.225Z,6.70
2022-12-23T16:46:22.588Z,6.70
2022-12-23T16:48:52.768Z,6.60
2022-12-23T16:53:55.313Z,5.50
2022-12-23T16:56:26.856Z,7.10
2022-12-23T16:58:55.573Z,6.30
2022-12-23T17:01:26.358Z,5.90
2022-12-23T17:03:56.029Z,6.50
2022-12-23T17:06:25.424Z,6.70
2022-12-23T17:08:54.233Z,6.90
2022-12-23T17:11:25.251Z,6.50
2022-12-23T17:13:59.603Z,7.30
2022-12-23T17:16:32.551Z,6.40
2022-12-23T17:19:01.478Z,7.30
2022-12-23T17:21:32.172Z,7.00
2022-12-23T17:24:23.851Z,6.90
2022-12-23T17:26:54.536Z,7.40
2022-12-23T17:29:23.520Z,7.40
2022-12-23T17:31:52.550Z,6.40
2022-12-23T17:34:22.812Z,7.00
2022-12-23T17:36:51.734Z,6.90
2022-12-23T17:39:22.138Z,7.20
2022-12-23T17:41:51.141Z,7.40
2022-12-23T17:44:20.114Z,7.90
2022-12-23T17:46:48.848Z,7.00
2022-12-23T17:49:17.561Z,8.10
2022-12-23T17:51:46.621Z,8.30
2022-12-23T17:54:23.011Z,7.30
2022-12-23T17:56:52.837Z,7.80
2022-12-23T17:59:21.984Z,8.00
2022-12-23T18:01:51.000Z,8.00
2022-12-23T18:04:19.926Z,8.00
2022-12-23T18:06:48.672Z,8.40
2022-12-23T18:09:18.796Z,7.90
2022-12-23T18:11:47.545Z,8.80
2022-12-23T18:14:18.039Z,8.30
2022-12-23T18:16:46.877Z,9.20
2022-12-23T18:19:17.620Z,9.20
2022-12-23T18:21:46.989Z,9.60
2022-12-23T18:24:16.141Z,7.80
2022-12-23T18:26:44.979Z,8.70
2022-12-23T18:29:13.710Z,8.80
2022-12-23T18:31:50.491Z,9.40
2022-12-23T18:34:21.165Z,9.20
2022-12-23T18:36:51.738Z,9.50
2022-12-23T18:39:21.176Z,9.80
2022-12-23T18:41:50.033Z,9.20
2022-12-23T18:44:20.440Z,9.70
2022-12-23T18:46:49.551Z,8.90
2022-12-23T18:49:18.442Z,8.80
2022-12-23T18:51:47.520Z,9.00
2022-12-23T18:54:16.697Z,8.30
2022-12-23T18:56:45.517Z,10.10
2022-12-23T18:59:15.884Z,9.70
2022-12-23T19:01:44.918Z,9.30
2022-12-23T19:04:13.857Z,9.50
2022-12-23T19:06:42.559Z,9.50
2022-12-23T19:09:18.309Z,9.40
2022-12-23T19:11:47.599Z,9.10
2022-12-23T19:14:16.317Z,9.40
2022-12-23T19:16:51.264Z,10.60
2022-12-23T19:19:21.663Z,9.30
2022-12-23T19:21:50.334Z,9.40
2022-12-23T19:24:19.037Z,9.30
2022-12-23T19:26:48.671Z,8.80
2022-12-23T19:29:17.338Z,9.00
2022-12-23T19:31:46.110Z,11.90
2022-12-23T19:34:15.832Z,10.50
2022-12-23T19:36:44.920Z,9.60
2022-12-23T19:39:16.498Z,9.00
2022-12-23T19:41:45.923Z,21.10
2022-12-23T19:44:14.765Z,37.30
2022-12-23T19:46:43.561Z,34.40
2022-12-23T19:49:19.223Z,13.70
2022-12-23T19:51:49.059Z,15.50
2022-12-23T19:54:18.432Z,11.60
2022-12-23T19:56:49.919Z,9.80
2022-12-23T19:59:19.034Z,9.10
2022-12-23T20:01:47.840Z,10.20
2022-12-23T20:04:17.484Z,11.30
2022-12-23T20:06:46.229Z,9.00
2022-12-23T20:09:15.076Z,8.50
2022-12-23T20:11:47.604Z,8.70
2022-12-23T20:14:17.401Z,11.50
2022-12-23T20:16:48.284Z,11.10
2022-12-23T20:19:17.808Z,11.60
2022-12-23T20:21:46.656Z,10.50
2022-12-23T20:24:15.678Z,10.80
2022-12-23T20:26:44.420Z,11.70
2022-12-23T20:29:13.104Z,13.10
2022-12-23T20:31:41.863Z,14.50
2022-12-23T20:34:13.472Z,10.70
2022-12-23T20:36:42.433Z,9.10
2022-12-23T20:39:11.238Z,15.60
2022-12-23T20:41:39.979Z,15.50
2022-12-23T20:44:33.917Z,12.50
2022-12-23T20:46:57.424Z,11.90
2022-12-23T20:49:26.547Z,15.20
2022-12-23T20:51:55.351Z,12.90
2022-12-23T20:54:31.679Z,11.70
2022-12-23T20:57:02.703Z,10.40
2022-12-23T20:59:31.693Z,14.00
2022-12-23T21:02:00.637Z,12.40
2022-12-23T21:04:29.416Z,9.50
2022-12-23T21:06:58.107Z,7.90
2022-12-23T21:09:26.827Z,7.50
2022-12-23T21:11:55.602Z,7.70
2022-12-23T21:14:24.326Z,6.90
2022-12-23T21:16:53.175Z,6.90
2022-12-23T21:19:23.413Z,7.50
2022-12-23T21:21:52.363Z,6.80
2022-12-23T21:24:21.323Z,7.20
2022-12-23T21:26:56.120Z,8.60
2022-12-23T21:29:25.861Z,8.20
2022-12-23T21:31:55.313Z,7.10
2022-12-23T21:34:24.275Z,6.70
2022-12-23T21:36:53.095Z,6.50
2022-12-23T21:39:22.046Z,8.10
2022-12-23T21:41:51.575Z,7.90
2022-12-23T21:44:20.406Z,6.20
2022-12-23T21:46:49.862Z,6.40
2022-12-23T21:49:19.280Z,6.40
2022-12-23T21:51:47.999Z,6.70
2022-12-23T21:54:16.643Z,6.00
2022-12-23T21:56:45.357Z,6.00
2022-12-23T21:59:14.659Z,5.40
2022-12-23T22:01:43.481Z,5.30
2022-12-23T22:04:12.351Z,5.70
2022-12-23T22:06:43.702Z,5.60
2022-12-23T22:09:17.094Z,5.30
2022-12-23T22:11:48.222Z,4.90
2022-12-23T22:14:18.835Z,4.70
2022-12-23T22:16:47.692Z,4.30
2022-12-23T22:19:16.497Z,4.70
2022-12-23T22:21:45.238Z,4.80
2022-12-23T22:24:13.985Z,4.90
2022-12-23T22:26:42.701Z,4.30
2022-12-23T22:29:11.892Z,4.10
2022-12-23T22:31:43.249Z,4.20
2022-12-23T22:34:13.679Z,5.00
2022-12-23T22:36:42.673Z,7.70
2022-12-23T22:39:17.739Z,5.70
2022-12-23T22:41:49.735Z,5.70
2022-12-23T22:44:18.854Z,5.00
2022-12-23T22:46:47.890Z,5.10
2022-12-23T22:49:17.129Z,4.70
2022-12-23T22:51:46.170Z,5.50
2022-12-23T22:54:14.898Z,4.90
2022-12-23T22:56:43.989Z,4.30
2022-12-23T22:59:22.803Z,4.30
2022-12-23T23:01:52.008Z,4.60
2022-12-23T23:04:20.764Z,3.10
2022-12-23T23:06:49.617Z,4.80
2022-12-23T23:09:19.524Z,4.70
2022-12-23T23:11:49.206Z,5.00
2022-12-23T23:14:18.685Z,4.70
2022-12-23T23:16:47.914Z,3.90
2022-12-23T23:19:20.297Z,4.30
2022-12-23T23:21:49.268Z,4.40
2022-12-23T23:24:18.006Z,4.20
2022-12-23T23:26:46.787Z,4.60
2022-12-23T23:29:15.519Z,4.60
2022-12-23T23:31:44.850Z,4.00
2022-12-23T23:34:14.235Z,5.00
2022-12-23T23:36:43.141Z,5.20
2022-12-23T23:39:12.203Z,4.70
2022-12-23T23:41:41.342Z,4.30
2022-12-23T23:44:10.690Z,5.10
2022-12-23T23:46:39.898Z,4.20
2022-12-23T23:49:08.664Z,5.00
2022-12-23T23:51:37.903Z,5.10
2022-12-23T23:54:06.533Z,5.00
2022-12-23T23:56:38.707Z,5.80
